createdAt,value
2019-02-24T00:00:29.214Z,28.83
2019-02-24T00:02:57.984Z,26.80
2019-02-24T00:05:27.663Z,35.13
2019-02-24T00:07:56.293Z,33.40
2019-02-24T00:10:25.124Z,29.33
2019-02-24T00:12:53.741Z,30.97
2019-02-24T00:15:22.475Z,34.20
2019-02-24T00:17:51.134Z,37.57
2019-02-24T00:20:19.882Z,28.67
2019-02-24T00:22:48.582Z,30.00
2019-02-24T00:25:17.434Z,36.57
2019-02-24T00:27:46.155Z,31.27
2019-02-24T00:30:14.989Z,30.80
2019-02-24T00:32:43.763Z,35.57
2019-02-24T00:35:12.483Z,37.33
2019-02-24T00:37:43.813Z,32.00
2019-02-24T00:40:12.567Z,36.87
2019-02-24T00:42:41.262Z,33.17
2019-02-24T00:45:10.062Z,31.10
2019-02-24T00:47:38.785Z,40.27
2019-02-24T00:50:09.393Z,27.10
2019-02-24T00:52:38.057Z,43.47
2019-02-24T00:55:07.979Z,37.43
2019-02-24T00:57:37.606Z,33.67
2019-02-24T01:00:09.843Z,35.20
2019-02-24T01:02:38.603Z,37.43
2019-02-24T01:05:09.693Z,39.13
2019-02-24T01:07:38.277Z,39.53
2019-02-24T01:10:09.323Z,37.47
2019-02-24T01:12:38.005Z,40.67
2019-02-24T01:15:09.859Z,38.23
2019-02-24T01:17:38.876Z,36.13
2019-02-24T01:20:09.727Z,36.03
2019-02-24T01:22:38.493Z,37.83
2019-02-24T01:25:07.375Z,41.37
2019-02-24T01:27:37.144Z,42.50
2019-02-24T01:30:09.745Z,34.47
2019-02-24T01:32:38.653Z,36.80
2019-02-24T01:35:09.118Z,37.43
2019-02-24T01:37:38.857Z,34.17
2019-02-24T01:40:08.511Z,33.07
2019-02-24T01:42:37.221Z,34.80
2019-02-24T01:45:07.907Z,38.50
2019-02-24T01:47:36.563Z,32.67
2019-02-24T01:50:08.276Z,32.20
2019-02-24T01:52:38.045Z,37.60
2019-02-24T01:55:06.783Z,32.57
2019-02-24T01:57:35.491Z,29.97
2019-02-24T02:00:05.093Z,35.33
2019-02-24T02:02:33.976Z,32.87
2019-02-24T02:05:02.805Z,36.80
2019-02-24T02:07:31.527Z,30.13
2019-02-24T02:10:00.284Z,31.30
2019-02-24T02:12:29.985Z,27.87
2019-02-24T02:15:00.767Z,34.47
2019-02-24T02:17:29.547Z,32.03
2019-02-24T02:19:58.325Z,35.13
2019-02-24T02:22:29.162Z,29.27
2019-02-24T02:24:57.977Z,33.87
2019-02-24T02:27:26.551Z,37.47
2019-02-24T02:29:55.397Z,34.23
2019-02-24T02:32:24.206Z,33.10
2019-02-24T02:34:52.832Z,34.90
2019-02-24T02:37:21.730Z,32.70
2019-02-24T02:39:50.415Z,37.70
2019-02-24T02:42:19.220Z,34.03
2019-02-24T02:44:47.959Z,30.37
2019-02-24T02:47:16.888Z,37.57
2019-02-24T02:49:45.663Z,40.50
2019-02-24T02:52:14.360Z,42.90
2019-02-24T02:54:43.039Z,35.30
2019-02-24T02:57:11.691Z,40.27
2019-02-24T02:59:40.268Z,34.80
2019-02-24T03:02:09.059Z,33.90
2019-02-24T03:04:37.681Z,36.80
2019-02-24T03:07:08.138Z,36.87
2019-02-24T03:09:36.994Z,29.53
2019-02-24T03:12:05.618Z,34.83
2019-02-24T03:14:34.384Z,29.80
2019-02-24T03:17:04.093Z,34.50
2019-02-24T03:23:04.507Z,40.80
2019-02-24T03:25:33.117Z,32.27
2019-02-24T03:28:01.842Z,33.33
2019-02-24T03:30:30.559Z,35.33
2019-02-24T03:32:59.219Z,34.47
2019-02-24T03:35:28.064Z,31.17
2019-02-24T03:37:59.987Z,35.37
2019-02-24T03:40:28.613Z,33.60
2019-02-24T03:42:57.396Z,32.00
2019-02-24T03:45:26.226Z,36.13
2019-02-24T03:47:54.838Z,32.57
2019-02-24T03:50:23.701Z,35.20
2019-02-24T03:52:52.558Z,36.53
2019-02-24T03:55:21.401Z,32.53
2019-02-24T03:57:50.300Z,36.63
2019-02-24T04:00:18.985Z,35.03
2019-02-24T04:02:47.804Z,35.00
2019-02-24T04:05:17.668Z,32.67
2019-02-24T04:07:46.457Z,32.23
2019-02-24T04:10:17.963Z,36.03
2019-02-24T04:12:46.593Z,35.13
2019-02-24T04:15:15.535Z,39.40
2019-02-24T04:17:44.221Z,34.03
2019-02-24T04:20:12.898Z,35.40
2019-02-24T04:22:41.650Z,30.23
2019-02-24T04:25:11.500Z,31.77
2019-02-24T04:27:40.153Z,35.43
2019-02-24T04:30:09.107Z,41.00
2019-02-24T04:32:37.686Z,37.57
2019-02-24T04:35:06.537Z,34.93
2019-02-24T04:37:35.352Z,35.33
2019-02-24T04:40:05.462Z,35.70
2019-02-24T04:42:34.303Z,32.17
2019-02-24T04:45:03.105Z,33.60
2019-02-24T04:47:31.830Z,32.73
2019-02-24T04:50:00.706Z,36.00
2019-02-24T04:52:29.484Z,36.73
2019-02-24T04:54:58.299Z,43.93
2019-02-24T04:57:27.296Z,35.47
2019-02-24T04:59:56.034Z,34.23
2019-02-24T05:02:24.801Z,43.47
2019-02-24T05:04:54.628Z,38.57
2019-02-24T05:07:23.367Z,45.47
2019-02-24T05:09:52.108Z,36.17
2019-02-24T05:12:21.084Z,42.27
2019-02-24T05:14:59.913Z,36.13
2019-02-24T05:17:31.024Z,38.23
2019-02-24T05:20:05.828Z,44.90
2019-02-24T05:22:34.645Z,39.73
2019-02-24T05:25:03.319Z,36.90
2019-02-24T05:27:33.574Z,42.03
2019-02-24T05:30:04.475Z,37.17
2019-02-24T05:32:33.305Z,39.67
2019-02-24T05:35:01.932Z,41.07
2019-02-24T05:37:30.713Z,40.37
2019-02-24T05:39:59.464Z,37.83
2019-02-24T05:42:28.307Z,41.90
2019-02-24T05:44:57.018Z,40.87
2019-02-24T05:47:35.674Z,46.03
2019-02-24T05:50:05.106Z,37.80
2019-02-24T05:52:33.837Z,37.87
2019-02-24T05:55:02.471Z,45.73
2019-02-24T05:57:31.193Z,35.50
2019-02-24T05:59:59.919Z,45.37
2019-02-24T06:02:28.536Z,37.07
2019-02-24T06:04:57.203Z,45.43
2019-02-24T06:07:26.025Z,38.20
2019-02-24T06:09:55.165Z,44.40
2019-02-24T06:12:23.988Z,41.53
2019-02-24T06:14:53.952Z,47.40
2019-02-24T06:17:25.594Z,48.43
2019-02-24T06:19:55.228Z,39.40
2019-02-24T06:22:24.044Z,43.73
2019-02-24T06:24:52.912Z,42.03
2019-02-24T06:27:21.636Z,48.37
2019-02-24T06:29:50.570Z,48.63
2019-02-24T06:32:19.322Z,45.07
2019-02-24T06:34:48.242Z,42.23
2019-02-24T06:37:16.836Z,45.30
2019-02-24T06:39:45.585Z,44.40
2019-02-24T06:42:14.236Z,43.03
2019-02-24T06:44:46.676Z,48.97
2019-02-24T06:47:16.328Z,54.73
2019-02-24T06:49:45.164Z,47.50
2019-02-24T06:52:28.164Z,49.17
2019-02-24T06:54:57.846Z,48.07
2019-02-24T06:58:02.828Z,44.53
2019-02-24T07:01:07.670Z,48.37
2019-02-24T07:04:14.435Z,43.73
2019-02-24T07:06:43.052Z,43.73
2019-02-24T07:09:11.945Z,50.50
2019-02-24T07:11:40.628Z,46.53
2019-02-24T07:14:12.691Z,45.40
2019-02-24T07:16:41.396Z,40.60
2019-02-24T07:19:11.165Z,44.57
2019-02-24T07:22:16.162Z,45.23
2019-02-24T07:24:45.092Z,39.67
2019-02-24T07:27:32.963Z,48.00
2019-02-24T07:30:08.171Z,46.20
2019-02-24T07:33:20.209Z,52.20
2019-02-24T07:36:08.047Z,44.63
2019-02-24T07:38:36.944Z,46.43
2019-02-24T07:41:23.673Z,40.07
2019-02-24T07:43:52.613Z,46.40
2019-02-24T07:49:52.933Z,46.40
2019-02-24T07:52:21.211Z,45.57
2019-02-24T07:54:49.930Z,46.37
2019-02-24T07:57:19.802Z,45.23
2019-02-24T07:59:48.880Z,48.33
2019-02-24T08:02:19.743Z,40.67
2019-02-24T08:05:27.118Z,45.47
2019-02-24T08:08:16.470Z,41.50
2019-02-24T08:10:53.912Z,45.43
2019-02-24T08:13:41.655Z,39.87
2019-02-24T08:16:10.741Z,40.10
2019-02-24T08:18:39.601Z,46.43
2019-02-24T08:21:33.387Z,48.90
2019-02-24T08:24:04.507Z,44.60
2019-02-24T08:26:32.809Z,51.67
2019-02-24T08:29:01.513Z,44.33
2019-02-24T08:31:30.193Z,42.70
2019-02-24T08:34:01.523Z,43.73
2019-02-24T08:36:30.126Z,43.07
2019-02-24T08:38:59.023Z,41.80
2019-02-24T08:42:25.195Z,42.83
2019-02-24T08:44:53.733Z,40.63
2019-02-24T08:47:22.543Z,43.10
2019-02-24T08:49:51.311Z,44.97
2019-02-24T08:52:21.174Z,42.67
2019-02-24T08:54:50.191Z,39.40
2019-02-24T08:57:19.061Z,42.47
2019-02-24T08:59:49.705Z,40.43
2019-02-24T09:02:18.445Z,38.77
2019-02-24T09:04:47.213Z,42.63
2019-02-24T09:07:21.629Z,41.67
2019-02-24T09:10:04.100Z,42.33
2019-02-24T09:12:33.207Z,39.90
2019-02-24T09:15:12.721Z,34.43
2019-02-24T09:17:44.074Z,35.73
2019-02-24T09:20:15.073Z,31.47
2019-02-24T09:22:45.201Z,39.00
2019-02-24T09:25:14.079Z,40.00
2019-02-24T09:27:50.193Z,38.83
2019-02-24T09:30:18.860Z,34.83
2019-02-24T09:32:49.447Z,35.20
2019-02-24T09:35:25.755Z,33.30
2019-02-24T09:37:54.548Z,32.37
2019-02-24T09:40:23.441Z,32.37
2019-02-24T09:43:25.540Z,41.90
2019-02-24T09:45:54.388Z,30.00
2019-02-24T09:48:24.705Z,33.10
2019-02-24T09:50:57.713Z,35.73
2019-02-24T09:53:29.019Z,32.80
2019-02-24T09:55:57.650Z,33.00
2019-02-24T09:58:26.482Z,27.80
2019-02-24T10:00:55.421Z,31.47
2019-02-24T10:03:24.241Z,38.20
2019-02-24T10:05:52.875Z,32.40
2019-02-24T10:08:21.597Z,34.80
2019-02-24T10:10:50.409Z,37.77
2019-02-24T10:13:19.077Z,32.47
2019-02-24T10:15:51.402Z,31.97
2019-02-24T10:18:20.152Z,33.80
2019-02-24T10:20:49.016Z,28.77
2019-02-24T10:23:17.817Z,35.07
2019-02-24T10:25:46.517Z,32.43
2019-02-24T10:28:15.317Z,29.13
2019-02-24T10:30:44.056Z,30.10
2019-02-24T10:33:18.756Z,30.83
2019-02-24T10:35:47.498Z,31.77
2019-02-24T10:38:16.386Z,28.73
2019-02-24T10:40:45.286Z,35.70
2019-02-24T10:43:14.060Z,31.77
2019-02-24T10:45:42.886Z,31.90
2019-02-24T10:48:14.436Z,31.80
2019-02-24T10:50:43.360Z,31.30
2019-02-24T10:53:16.369Z,32.27
2019-02-24T10:55:45.377Z,32.63
2019-02-24T10:58:16.132Z,34.53
2019-02-24T11:00:54.913Z,33.17
2019-02-24T11:03:26.222Z,34.10
2019-02-24T11:05:58.964Z,33.30
2019-02-24T11:08:32.242Z,31.93
2019-02-24T11:10:58.414Z,32.87
2019-02-24T11:13:27.112Z,34.17
2019-02-24T11:15:55.892Z,32.10
2019-02-24T11:18:24.688Z,31.60
2019-02-24T11:21:02.656Z,30.13
2019-02-24T11:23:31.458Z,34.70
2019-02-24T11:26:03.272Z,34.33
2019-02-24T11:28:34.327Z,30.37
2019-02-24T11:31:05.062Z,35.40
2019-02-24T11:33:34.650Z,31.40
2019-02-24T11:36:10.131Z,32.17
2019-02-24T11:38:38.901Z,33.87
2019-02-24T11:41:07.602Z,32.70
2019-02-24T11:43:36.361Z,33.70
2019-02-24T11:46:05.180Z,34.87
2019-02-24T11:48:37.017Z,34.33
2019-02-24T11:51:05.971Z,33.73
2019-02-24T11:53:34.546Z,37.10
2019-02-24T11:56:03.306Z,29.63
2019-02-24T11:58:32.097Z,33.07
2019-02-24T12:01:05.627Z,38.33
2019-02-24T12:03:37.500Z,32.23
2019-02-24T12:06:06.315Z,35.80
2019-02-24T12:08:41.268Z,31.93
2019-02-24T12:11:09.887Z,34.73
2019-02-24T12:13:38.610Z,32.87
2019-02-24T12:16:07.512Z,31.27
2019-02-24T12:18:36.211Z,34.70
2019-02-24T12:21:05.003Z,35.93
2019-02-24T12:23:33.821Z,34.20
2019-02-24T12:26:05.805Z,36.57
2019-02-24T12:28:34.665Z,31.40
2019-02-24T12:31:03.577Z,36.47
2019-02-24T12:33:32.513Z,32.63
2019-02-24T12:36:02.882Z,33.40
2019-02-24T12:38:31.622Z,28.67
2019-02-24T12:41:00.295Z,34.20
2019-02-24T12:43:29.165Z,32.70
2019-02-24T12:45:58.012Z,34.37
2019-02-24T12:48:26.908Z,36.73
2019-02-24T12:50:55.939Z,34.00
2019-02-24T12:53:24.738Z,34.93
2019-02-24T12:55:53.361Z,37.00
2019-02-24T12:58:22.074Z,35.47
2019-02-24T13:00:50.896Z,40.43
2019-02-24T13:03:23.903Z,31.10
2019-02-24T13:05:50.401Z,35.83
2019-02-24T13:08:19.129Z,35.73
2019-02-24T13:10:47.957Z,39.17
2019-02-24T13:13:16.746Z,38.73
2019-02-24T13:15:45.466Z,35.27
2019-02-24T13:18:14.562Z,39.00
2019-02-24T13:20:43.508Z,39.37
2019-02-24T13:23:12.407Z,37.73
2019-02-24T13:25:42.268Z,36.97
2019-02-24T13:28:11.260Z,38.87
2019-02-24T13:30:40.058Z,39.07
2019-02-24T13:33:09.139Z,39.90
2019-02-24T13:35:37.937Z,42.90
2019-02-24T13:38:06.785Z,39.23
2019-02-24T13:40:35.614Z,39.37
2019-02-24T13:43:07.460Z,39.10
2019-02-24T13:45:37.811Z,42.20
2019-02-24T13:48:07.083Z,40.30
2019-02-24T13:50:36.259Z,40.43
2019-02-24T13:53:05.242Z,37.37
2019-02-24T13:55:34.083Z,41.00
2019-02-24T13:58:02.924Z,41.93
2019-02-24T14:00:31.662Z,39.60
2019-02-24T14:03:00.704Z,41.63
2019-02-24T14:05:29.507Z,44.53
2019-02-24T14:07:58.634Z,34.17
2019-02-24T14:10:36.126Z,42.87
2019-02-24T14:13:07.899Z,41.33
2019-02-24T14:15:42.608Z,43.43
2019-02-24T14:18:26.147Z,42.60
2019-02-24T14:20:57.931Z,41.63
2019-02-24T14:23:33.254Z,46.03
2019-02-24T14:26:05.538Z,41.83
2019-02-24T14:28:36.069Z,47.87
2019-02-24T14:31:06.401Z,39.63
2019-02-24T14:33:38.294Z,45.57
2019-02-24T14:36:10.012Z,46.17
2019-02-24T14:38:39.386Z,46.47
2019-02-24T14:41:08.962Z,44.00
2019-02-24T14:43:38.297Z,40.77
2019-02-24T14:46:07.005Z,44.70
2019-02-24T14:48:35.714Z,46.93
2019-02-24T14:51:04.586Z,43.43
2019-02-24T14:53:33.523Z,43.13
2019-02-24T14:56:02.308Z,43.50
2019-02-24T14:58:31.273Z,45.10
2019-02-24T15:01:01.615Z,44.30
2019-02-24T15:03:30.459Z,45.07
2019-02-24T15:05:59.262Z,42.67
2019-02-24T15:08:29.485Z,46.40
2019-02-24T15:10:58.232Z,41.73
2019-02-24T15:13:32.547Z,43.27
2019-02-24T15:16:01.770Z,44.90
2019-02-24T15:18:34.950Z,46.77
2019-02-24T15:21:10.981Z,45.20
2019-02-24T15:23:39.520Z,37.47
2019-02-24T15:26:08.483Z,44.40
2019-02-24T15:28:39.056Z,49.80
2019-02-24T15:31:07.806Z,44.93
2019-02-24T15:33:36.787Z,54.87
2019-02-24T15:36:14.284Z,48.73
2019-02-24T15:38:45.809Z,51.83
2019-02-24T15:41:17.434Z,50.10
2019-02-24T15:43:46.488Z,53.17
2019-02-24T15:46:15.449Z,48.43
2019-02-24T15:48:45.395Z,46.37
2019-02-24T15:51:14.281Z,48.77
2019-02-24T15:53:47.470Z,48.37
2019-02-24T15:56:16.370Z,51.50
2019-02-24T15:58:46.214Z,46.73
2019-02-24T16:01:14.999Z,50.53
2019-02-24T16:03:52.088Z,50.23
2019-02-24T16:06:21.256Z,51.57
2019-02-24T16:08:51.504Z,51.50
2019-02-24T16:11:20.527Z,56.07
2019-02-24T16:13:58.068Z,49.63
2019-02-24T16:16:24.484Z,50.17
2019-02-24T16:18:53.253Z,51.30
2019-02-24T16:21:22.094Z,53.93
2019-02-24T16:23:51.001Z,50.93
2019-02-24T16:26:20.039Z,52.87
2019-02-24T16:28:48.810Z,52.40
2019-02-24T16:31:17.669Z,58.43
2019-02-24T16:33:46.612Z,54.23
2019-02-24T16:36:15.578Z,57.80
2019-02-24T16:38:44.502Z,54.23
2019-02-24T16:41:13.324Z,57.57
2019-02-24T16:43:44.196Z,58.27
2019-02-24T16:46:13.129Z,54.23
2019-02-24T16:48:43.707Z,50.80
2019-02-24T16:51:13.427Z,59.08
2019-02-24T16:53:45.176Z,53.70
2019-02-24T16:56:15.445Z,56.53
2019-02-24T16:58:44.073Z,57.73
2019-02-24T17:01:16.255Z,55.03
2019-02-24T17:03:45.100Z,58.03
2019-02-24T17:06:16.176Z,54.47
2019-02-24T17:08:51.897Z,58.10
2019-02-24T17:11:18.897Z,56.07
2019-02-24T17:13:49.547Z,61.20
2019-02-24T17:16:18.340Z,58.17
2019-02-24T17:18:48.249Z,59.63
2019-02-24T17:21:17.289Z,61.90
2019-02-24T17:24:04.109Z,61.07
2019-02-24T17:26:34.423Z,65.37
2019-02-24T17:29:03.143Z,64.00
2019-02-24T17:31:37.906Z,71.53
2019-02-24T17:34:09.643Z,69.70
2019-02-24T17:36:38.422Z,67.80
2019-02-24T17:39:07.351Z,64.37
2019-02-24T17:41:37.729Z,59.03
2019-02-24T17:44:07.089Z,56.00
2019-02-24T17:46:36.094Z,58.27
2019-02-24T17:49:04.938Z,66.13
2019-02-24T17:51:34.899Z,63.37
2019-02-24T17:54:03.660Z,57.83
2019-02-24T17:56:32.794Z,58.03
2019-02-24T17:59:01.830Z,57.77
2019-02-24T18:01:30.662Z,63.73
2019-02-24T18:03:59.632Z,60.57
2019-02-24T18:06:28.468Z,61.80
2019-02-24T18:08:57.398Z,64.67
2019-02-24T18:11:26.366Z,57.03
2019-02-24T18:13:58.311Z,60.47
2019-02-24T18:16:27.047Z,65.07
2019-02-24T18:19:00.062Z,58.97
2019-02-24T18:21:30.067Z,57.80
2019-02-24T18:24:06.934Z,58.93
2019-02-24T18:26:37.052Z,53.90
2019-02-24T18:29:06.961Z,65.93
2019-02-24T18:31:35.996Z,57.10
2019-02-24T18:34:05.119Z,63.20
2019-02-24T18:36:37.106Z,62.93
2019-02-24T18:39:06.680Z,60.20
2019-02-24T18:41:35.384Z,63.13
2019-02-24T18:44:06.886Z,74.40
2019-02-24T18:46:35.575Z,71.97
2019-02-24T18:49:04.602Z,63.37
2019-02-24T18:51:33.699Z,67.00
2019-02-24T18:54:02.592Z,63.17
2019-02-24T18:56:31.738Z,63.57
2019-02-24T18:59:03.832Z,66.17
2019-02-24T19:01:39.936Z,68.37
2019-02-24T19:04:16.017Z,65.53
2019-02-24T19:06:45.124Z,70.53
2019-02-24T19:09:13.934Z,62.87
2019-02-24T19:11:42.794Z,74.93
2019-02-24T19:14:11.865Z,67.57
2019-02-24T19:16:40.726Z,66.07
2019-02-24T19:19:11.652Z,69.10
2019-02-24T19:21:40.709Z,73.80
2019-02-24T19:24:09.651Z,67.20
2019-02-24T19:26:38.921Z,68.50
2019-02-24T19:29:07.750Z,75.10
2019-02-24T19:31:39.092Z,82.77
2019-02-24T19:34:07.927Z,72.87
2019-02-24T19:36:36.712Z,76.73
2019-02-24T19:39:08.267Z,71.40
2019-02-24T19:41:47.990Z,72.57
2019-02-24T19:44:26.564Z,74.27
2019-02-24T19:46:55.602Z,74.50
2019-02-24T19:49:24.730Z,79.27
2019-02-24T19:51:53.699Z,73.83
2019-02-24T19:54:22.787Z,88.47
2019-02-24T19:56:52.410Z,90.47
2019-02-24T19:59:21.453Z,83.60
2019-02-24T20:01:50.160Z,82.20
2019-02-24T20:04:23.730Z,82.23
2019-02-24T20:06:55.552Z,80.97
2019-02-24T20:09:24.408Z,81.07
2019-02-24T20:11:53.363Z,79.13
2019-02-24T20:14:22.178Z,80.63
2019-02-24T20:16:50.952Z,80.13
2019-02-24T20:19:23.080Z,79.13
2019-02-24T20:22:14.777Z,78.17
2019-02-24T20:24:43.638Z,73.80
2019-02-24T20:27:23.193Z,73.30
2019-02-24T20:29:56.216Z,72.67
2019-02-24T20:32:29.563Z,74.30
2019-02-24T20:35:02.565Z,77.83
2019-02-24T20:37:34.567Z,71.20
2019-02-24T20:40:03.667Z,76.97
2019-02-24T20:42:35.595Z,76.27
2019-02-24T20:45:10.788Z,80.17
2019-02-24T20:47:45.548Z,79.00
2019-02-24T20:50:20.240Z,75.13
2019-02-24T20:52:53.599Z,82.03
2019-02-24T20:55:47.844Z,75.23
2019-02-24T20:58:30.909Z,77.80
2019-02-24T21:01:07.619Z,68.50
2019-02-24T21:04:10.329Z,69.73
2019-02-24T21:06:25.975Z,72.57
2019-02-24T21:09:06.278Z,74.77
2019-02-24T21:12:05.937Z,84.00
2019-02-24T21:14:34.765Z,71.40
2019-02-24T21:17:03.843Z,78.63
2019-02-24T21:19:33.121Z,69.70
2019-02-24T21:22:24.546Z,73.90
2019-02-24T21:24:53.376Z,72.40
2019-02-24T21:27:28.086Z,71.33
2019-02-24T21:29:57.175Z,71.00
2019-02-24T21:32:28.659Z,69.03
2019-02-24T21:34:58.563Z,71.03
2019-02-24T21:37:27.618Z,68.70
2019-02-24T21:40:04.393Z,63.83
2019-02-24T21:42:33.445Z,63.67
2019-02-24T21:45:07.290Z,63.43
2019-02-24T21:47:37.341Z,53.53
2019-02-24T21:50:09.060Z,61.10
2019-02-24T21:52:45.173Z,54.10
2019-02-24T21:55:25.899Z,56.83
2019-02-24T21:58:10.557Z,57.10
2019-02-24T22:00:59.246Z,54.27
2019-02-24T22:03:29.576Z,50.33
2019-02-24T22:06:04.001Z,58.30
2019-02-24T22:08:33.133Z,52.33
2019-02-24T22:11:41.555Z,54.40
2019-02-24T22:15:08.397Z,56.93
2019-02-24T22:21:38.280Z,54.67
2019-02-24T22:24:09.175Z,57.37
2019-02-24T22:26:38.092Z,52.17
2019-02-24T22:29:08.796Z,57.83
2019-02-24T22:31:38.054Z,51.43
2019-02-24T22:34:06.951Z,58.83
2019-02-24T22:36:35.740Z,50.73
2019-02-24T22:39:09.072Z,56.20
2019-02-24T22:41:37.580Z,59.67
2019-02-24T22:44:06.418Z,54.43
2019-02-24T22:46:39.517Z,58.03
2019-02-24T22:49:08.308Z,55.10
2019-02-24T22:51:38.142Z,53.00
2019-02-24T22:54:07.079Z,51.13
2019-02-24T22:56:36.014Z,57.97
2019-02-24T22:59:04.789Z,53.33
2019-02-24T23:01:35.525Z,51.47
2019-02-24T23:04:09.903Z,51.47
2019-02-24T23:06:44.313Z,52.90
2019-02-24T23:09:14.255Z,55.30
2019-02-24T23:11:43.152Z,53.70
2019-02-24T23:14:15.111Z,57.50
2019-02-24T23:16:45.633Z,52.10
2019-02-24T23:19:14.452Z,53.17
2019-02-24T23:21:43.299Z,55.10
2019-02-24T23:24:16.020Z,51.00
2019-02-24T23:26:44.825Z,49.97
2019-02-24T23:29:13.603Z,48.40
2019-02-24T23:31:43.541Z,48.33
2019-02-24T23:34:12.239Z,50.43
2019-02-24T23:36:41.438Z,51.27
2019-02-24T23:39:12.462Z,56.03
2019-02-24T23:41:41.572Z,56.00
2019-02-24T23:44:13.413Z,53.97
2019-02-24T23:46:42.610Z,52.90
2019-02-24T23:49:12.248Z,52.30
2019-02-24T23:51:41.235Z,56.33
2019-02-24T23:54:10.041Z,54.07
2019-02-24T23:56:41.834Z,52.70
2019-02-24T23:59:10.667Z,59.13
